createdAt,value
2023-08-11T00:01:31.395Z,15.20
2023-08-11T00:03:59.603Z,15.10
2023-08-11T00:06:27.655Z,15.10
2023-08-11T00:08:55.743Z,15.00
2023-08-11T00:11:25.249Z,15.00
2023-08-11T00:13:53.331Z,15.00
2023-08-11T00:16:22.990Z,15.00
2023-08-11T00:18:51.894Z,14.90
2023-08-11T00:21:19.868Z,14.90
2023-08-11T00:23:47.912Z,14.90
2023-08-11T00:26:16.040Z,14.90
2023-08-11T00:28:45.496Z,14.90
2023-08-11T00:31:14.625Z,14.90
2023-08-11T00:33:47.736Z,14.90
2023-08-11T00:36:16.211Z,14.90
2023-08-11T00:38:44.276Z,14.80
2023-08-11T00:41:12.665Z,14.80
2023-08-11T00:43:40.671Z,14.90
2023-08-11T00:46:11.958Z,14.90
2023-08-11T00:48:41.780Z,14.80
2023-08-11T00:51:12.103Z,14.80
2023-08-11T00:53:41.728Z,14.80
2023-08-11T00:56:10.153Z,14.70
2023-08-11T00:58:39.855Z,14.70
2023-08-11T01:01:08.290Z,14.70
2023-08-11T01:03:36.473Z,14.70
2023-08-11T01:06:14.355Z,14.70
2023-08-11T01:08:51.140Z,14.70
2023-08-11T01:11:30.675Z,14.60
2023-08-11T01:14:08.331Z,14.70
2023-08-11T01:16:38.244Z,14.60
2023-08-11T01:19:07.949Z,14.60
2023-08-11T01:21:42.565Z,14.60
2023-08-11T01:24:12.482Z,14.60
2023-08-11T01:26:40.644Z,14.60
2023-08-11T01:29:09.446Z,14.60
2023-08-11T01:31:37.461Z,14.60
2023-08-11T01:34:05.772Z,14.50
2023-08-11T01:36:33.791Z,14.50
2023-08-11T01:39:01.786Z,14.50
2023-08-11T01:41:31.288Z,14.40
2023-08-11T01:43:59.379Z,14.50
2023-08-11T01:46:29.948Z,14.50
2023-08-11T01:48:59.337Z,14.50
2023-08-11T01:51:28.243Z,14.50
2023-08-11T01:53:56.861Z,14.50
2023-08-11T01:56:26.672Z,14.40
2023-08-11T01:58:58.136Z,14.40
2023-08-11T02:01:26.361Z,14.40
2023-08-11T02:03:54.542Z,14.40
2023-08-11T02:06:22.782Z,14.40
2023-08-11T02:08:50.817Z,14.40
2023-08-11T02:11:18.881Z,14.40
2023-08-11T02:13:46.980Z,14.30
2023-08-11T02:16:16.472Z,14.30
2023-08-11T02:18:44.628Z,14.30
2023-08-11T02:21:13.574Z,14.30
2023-08-11T02:23:41.671Z,14.20
2023-08-11T02:26:09.824Z,14.20
2023-08-11T02:28:37.963Z,14.20
2023-08-11T02:31:06.025Z,14.20
2023-08-11T02:33:35.461Z,14.20
2023-08-11T02:36:05.191Z,14.20
2023-08-11T02:38:33.884Z,14.20
2023-08-11T02:41:02.073Z,14.20
2023-08-11T02:43:30.130Z,14.10
2023-08-11T02:45:58.243Z,14.10
2023-08-11T02:48:26.323Z,14.10
2023-08-11T02:50:56.024Z,14.10
2023-08-11T02:53:24.885Z,14.10
2023-08-11T02:55:53.404Z,14.00
2023-08-11T02:58:21.539Z,14.00
2023-08-11T03:00:51.111Z,14.00
2023-08-11T03:03:19.275Z,14.00
2023-08-11T03:05:47.446Z,14.00
2023-08-11T03:08:16.869Z,14.00
2023-08-11T03:10:56.096Z,14.00
2023-08-11T03:13:25.670Z,14.00
2023-08-11T03:15:54.290Z,14.00
2023-08-11T03:18:22.435Z,14.00
2023-08-11T03:20:50.564Z,14.10
2023-08-11T03:23:20.064Z,14.10
2023-08-11T03:25:48.175Z,14.10
2023-08-11T03:28:16.179Z,14.10
2023-08-11T03:30:44.249Z,14.10
2023-08-11T03:33:12.281Z,14.10
2023-08-11T03:35:40.354Z,14.10
2023-08-11T03:38:08.398Z,14.10
2023-08-11T03:40:37.821Z,14.20
2023-08-11T03:43:06.024Z,14.10
2023-08-11T03:45:34.094Z,14.10
2023-08-11T03:48:02.143Z,14.10
2023-08-11T03:50:30.271Z,14.10
2023-08-11T03:52:58.283Z,14.10
2023-08-11T03:55:26.364Z,14.20
2023-08-11T03:57:55.757Z,14.20
2023-08-11T04:00:24.640Z,14.20
2023-08-11T04:02:52.780Z,14.10
2023-08-11T04:05:20.813Z,14.10
2023-08-11T04:07:49.716Z,14.10
2023-08-11T04:10:18.226Z,14.10
2023-08-11T04:12:46.231Z,14.10
2023-08-11T04:15:16.599Z,14.10
2023-08-11T04:17:44.699Z,14.20
2023-08-11T04:20:16.952Z,14.20
2023-08-11T04:22:45.550Z,14.20
2023-08-11T04:25:14.919Z,14.30
2023-08-11T04:27:43.272Z,14.30
2023-08-11T04:30:13.298Z,14.30
2023-08-11T04:32:42.738Z,14.30
2023-08-11T04:35:11.410Z,14.40
2023-08-11T04:37:39.580Z,14.40
2023-08-11T04:40:11.944Z,14.40
2023-08-11T04:42:40.327Z,14.40
2023-08-11T04:45:10.024Z,14.50
2023-08-11T04:47:38.538Z,14.50
2023-08-11T04:50:10.150Z,14.50
2023-08-11T04:52:38.365Z,14.50
2023-08-11T04:55:08.669Z,14.50
2023-08-11T04:57:36.938Z,14.60
2023-08-11T05:00:07.981Z,14.60
2023-08-11T05:02:36.229Z,14.60
2023-08-11T05:05:06.784Z,14.60
2023-08-11T05:07:36.280Z,14.70
2023-08-11T05:10:05.411Z,14.70
2023-08-11T05:12:33.799Z,14.70
2023-08-11T05:15:01.797Z,14.80
2023-08-11T05:17:29.967Z,14.80
2023-08-11T05:19:58.305Z,14.80
2023-08-11T05:22:26.575Z,14.80
2023-08-11T05:24:56.134Z,14.80
2023-08-11T05:27:24.224Z,14.90
2023-08-11T05:29:52.509Z,14.90
2023-08-11T05:32:20.785Z,15.00
2023-08-11T05:34:49.096Z,15.00
2023-08-11T05:37:17.162Z,15.00
2023-08-11T05:39:45.528Z,15.00
2023-08-11T05:42:15.127Z,15.10
2023-08-11T05:44:43.272Z,15.10
2023-08-11T05:47:11.572Z,15.20
2023-08-11T05:49:39.798Z,15.20
2023-08-11T05:52:08.087Z,15.20
2023-08-11T05:54:36.256Z,15.30
2023-08-11T05:57:04.608Z,15.40
2023-08-11T05:59:34.140Z,15.50
2023-08-11T06:02:02.246Z,15.50
2023-08-11T06:04:30.741Z,15.60
2023-08-11T06:06:58.803Z,15.60
2023-08-11T06:09:26.908Z,15.70
2023-08-11T06:11:54.907Z,15.80
2023-08-11T06:14:22.953Z,15.90
2023-08-11T06:16:52.461Z,16.00
2023-08-11T06:19:20.527Z,16.20
2023-08-11T06:21:48.687Z,16.30
2023-08-11T06:24:16.729Z,16.50
2023-08-11T06:26:45.999Z,16.60
2023-08-11T06:29:14.104Z,16.80
2023-08-11T06:31:44.003Z,16.90
2023-08-11T06:34:13.644Z,17.10
2023-08-11T06:36:41.871Z,17.20
2023-08-11T06:39:09.912Z,17.40
2023-08-11T06:41:38.196Z,17.50
2023-08-11T06:44:06.401Z,17.60
2023-08-11T06:46:34.618Z,17.70
2023-08-11T06:49:03.786Z,17.80
2023-08-11T06:51:33.274Z,17.90
2023-08-11T06:54:01.346Z,18.00
2023-08-11T06:56:29.516Z,18.10
2023-08-11T06:58:57.599Z,18.30
2023-08-11T07:01:25.693Z,18.50
2023-08-11T07:03:53.732Z,18.60
2023-08-11T07:06:21.785Z,18.70
2023-08-11T07:08:51.151Z,18.80
2023-08-11T07:11:20.251Z,19.00
2023-08-11T07:13:48.237Z,19.20
2023-08-11T07:16:17.856Z,19.40
2023-08-11T07:18:45.892Z,19.60
2023-08-11T07:21:13.990Z,19.80
2023-08-11T07:23:42.463Z,20.00
2023-08-11T07:26:12.202Z,20.10
2023-08-11T07:28:41.484Z,20.20
2023-08-11T07:31:09.756Z,20.30
2023-08-11T07:33:40.977Z,20.40
2023-08-11T07:36:09.058Z,20.40
2023-08-11T07:38:37.534Z,20.50
2023-08-11T07:41:05.948Z,20.60
2023-08-11T07:43:35.360Z,20.70
2023-08-11T07:46:03.791Z,20.80
2023-08-11T07:48:32.749Z,20.90
2023-08-11T07:51:01.066Z,21.00
2023-08-11T07:53:29.188Z,21.10
2023-08-11T07:55:58.687Z,21.20
2023-08-11T07:58:26.814Z,21.30
2023-08-11T08:00:56.165Z,21.40
2023-08-11T08:03:24.816Z,21.50
2023-08-11T08:05:53.099Z,21.50
2023-08-11T08:08:21.127Z,21.70
2023-08-11T08:10:49.261Z,21.80
2023-08-11T08:13:17.867Z,21.90
2023-08-11T08:15:45.973Z,22.10
2023-08-11T08:18:15.358Z,22.10
2023-08-11T08:20:43.474Z,22.20
2023-08-11T08:23:13.671Z,22.30
2023-08-11T08:25:42.004Z,22.30
2023-08-11T08:28:12.179Z,22.30
2023-08-11T08:30:40.539Z,22.40
2023-08-11T08:33:09.008Z,22.50
2023-08-11T08:35:38.629Z,22.70
2023-08-11T08:38:07.384Z,22.70
2023-08-11T08:40:37.564Z,22.80
2023-08-11T08:43:05.935Z,22.80
2023-08-11T08:45:36.365Z,22.90
2023-08-11T08:48:09.368Z,23.00
2023-08-11T08:50:40.109Z,23.00
2023-08-11T08:53:08.105Z,23.00
2023-08-11T08:55:36.281Z,23.00
2023-08-11T08:58:04.583Z,23.20
2023-08-11T09:00:34.488Z,23.20
2023-08-11T09:03:04.706Z,23.40
2023-08-11T09:05:34.433Z,23.50
2023-08-11T09:08:04.665Z,23.60
2023-08-11T09:10:34.028Z,23.60
2023-08-11T09:13:02.055Z,23.20
2023-08-11T09:15:30.515Z,23.10
2023-08-11T09:18:00.645Z,22.90
2023-08-11T09:20:28.938Z,22.70
2023-08-11T09:22:57.657Z,22.70
2023-08-11T09:25:30.090Z,22.90
2023-08-11T09:27:59.470Z,23.00
2023-08-11T09:30:32.136Z,23.10
2023-08-11T09:33:02.227Z,23.00
2023-08-11T09:35:30.616Z,22.90
2023-08-11T09:37:58.839Z,22.80
2023-08-11T09:40:28.398Z,22.70
2023-08-11T09:42:57.161Z,22.70
2023-08-11T09:45:25.890Z,22.70
2023-08-11T09:47:54.120Z,22.70
2023-08-11T09:50:23.494Z,22.80
2023-08-11T09:52:52.904Z,22.80
2023-08-11T09:55:22.441Z,22.90
2023-08-11T09:57:53.173Z,23.20
2023-08-11T10:00:21.351Z,23.30
2023-08-11T10:02:57.663Z,23.30
2023-08-11T10:05:30.375Z,23.40
2023-08-11T10:08:02.476Z,23.50
2023-08-11T10:10:33.405Z,23.70
2023-08-11T10:13:09.344Z,23.90
2023-08-11T10:15:38.289Z,24.10
2023-08-11T10:18:07.863Z,24.30
2023-08-11T10:20:36.361Z,24.30
2023-08-11T10:23:04.711Z,23.90
2023-08-11T10:25:34.010Z,23.60
2023-08-11T10:28:08.134Z,23.30
2023-08-11T10:30:36.185Z,23.60
2023-08-11T10:33:10.633Z,23.90
2023-08-11T10:35:50.842Z,24.20
2023-08-11T10:38:27.055Z,24.50
2023-08-11T10:41:00.940Z,24.80
2023-08-11T10:43:35.701Z,24.50
2023-08-11T10:46:23.665Z,24.50
2023-08-11T10:48:52.823Z,24.40
2023-08-11T10:51:32.691Z,24.40
2023-08-11T10:54:11.237Z,24.40
2023-08-11T10:56:40.670Z,24.30
2023-08-11T10:59:18.144Z,24.00
2023-08-11T11:01:47.995Z,24.10
2023-08-11T11:04:17.894Z,24.20
2023-08-11T11:06:47.135Z,24.10
2023-08-11T11:09:15.672Z,24.10
2023-08-11T11:11:45.646Z,24.00
2023-08-11T11:14:15.730Z,24.20
2023-08-11T11:16:43.916Z,24.30
2023-08-11T11:19:12.207Z,24.50
2023-08-11T11:21:42.249Z,24.80
2023-08-11T11:24:11.217Z,24.90
2023-08-11T11:26:39.651Z,25.10
2023-08-11T11:29:08.078Z,25.10
2023-08-11T11:31:39.735Z,25.10
2023-08-11T11:34:08.662Z,25.00
2023-08-11T11:36:36.836Z,24.90
2023-08-11T11:39:06.634Z,24.80
2023-08-11T11:41:34.927Z,24.90
2023-08-11T11:44:03.386Z,25.10
2023-08-11T11:46:34.636Z,25.20
2023-08-11T11:49:15.808Z,25.40
2023-08-11T11:51:48.671Z,25.50
2023-08-11T11:54:16.725Z,25.40
2023-08-11T11:56:58.173Z,25.60
2023-08-11T11:59:31.202Z,25.60
2023-08-11T12:02:01.782Z,25.30
2023-08-11T12:04:31.758Z,25.30
2023-08-11T12:07:00.016Z,25.40
2023-08-11T12:09:29.469Z,25.60
2023-08-11T12:11:57.587Z,25.70
2023-08-11T12:14:28.713Z,25.70
2023-08-11T12:16:59.321Z,25.80
2023-08-11T12:19:27.351Z,25.80
2023-08-11T12:21:57.591Z,26.00
2023-08-11T12:24:25.575Z,26.00
2023-08-11T12:26:53.614Z,26.10
2023-08-11T12:29:21.597Z,26.20
2023-08-11T12:31:52.406Z,26.30
2023-08-11T12:34:20.537Z,26.30
2023-08-11T12:36:48.668Z,26.30
2023-08-11T12:39:18.177Z,26.20
2023-08-11T12:41:46.245Z,26.20
2023-08-11T12:44:14.233Z,26.30
2023-08-11T12:46:42.210Z,26.30
2023-08-11T12:49:13.566Z,26.10
2023-08-11T12:51:42.256Z,25.90
2023-08-11T12:54:10.741Z,25.80
2023-08-11T12:56:40.680Z,25.90
2023-08-11T12:59:08.813Z,26.00
2023-08-11T13:01:37.453Z,26.00
2023-08-11T13:04:07.060Z,25.90
2023-08-11T13:06:35.377Z,25.90
2023-08-11T13:09:03.645Z,26.10
2023-08-11T13:11:33.161Z,26.10
2023-08-11T13:14:03.839Z,26.10
2023-08-11T13:16:32.462Z,26.10
2023-08-11T13:19:00.559Z,26.10
2023-08-11T13:21:28.677Z,26.10
2023-08-11T13:23:56.809Z,26.00
2023-08-11T13:26:24.880Z,26.00
2023-08-11T13:28:55.312Z,26.10
2023-08-11T13:31:24.990Z,26.20
2023-08-11T13:33:53.260Z,26.30
2023-08-11T13:36:21.497Z,26.20
2023-08-11T13:38:49.570Z,26.20
2023-08-11T13:41:17.988Z,26.30
2023-08-11T13:43:46.399Z,26.40
2023-08-11T13:46:14.885Z,26.50
2023-08-11T13:48:44.660Z,26.60
2023-08-11T13:51:12.801Z,26.60
2023-08-11T13:53:41.170Z,26.50
2023-08-11T13:56:10.498Z,26.40
2023-08-11T13:58:38.802Z,26.40
2023-08-11T14:01:07.312Z,26.40
2023-08-11T14:03:35.473Z,26.50
2023-08-11T14:06:05.474Z,26.40
2023-08-11T14:08:34.060Z,26.40
2023-08-11T14:11:02.179Z,26.30
2023-08-11T14:13:30.327Z,26.30
2023-08-11T14:15:58.651Z,26.30
2023-08-11T14:18:26.839Z,26.30
2023-08-11T14:20:54.861Z,26.10
2023-08-11T14:23:24.325Z,26.10
2023-08-11T14:25:53.007Z,26.30
2023-08-11T14:28:21.458Z,26.30
2023-08-11T14:30:49.942Z,26.40
2023-08-11T14:33:18.204Z,26.50
2023-08-11T14:35:50.186Z,26.50
2023-08-11T14:38:18.247Z,26.60
2023-08-11T14:40:47.719Z,26.50
2023-08-11T14:43:16.176Z,26.80
2023-08-11T14:45:44.926Z,27.90
2023-08-11T14:48:13.271Z,27.80
2023-08-11T14:50:41.337Z,27.50
2023-08-11T14:53:09.377Z,27.40
2023-08-11T14:55:37.743Z,27.30
2023-08-11T14:58:07.457Z,27.00
2023-08-11T15:00:35.490Z,26.80
2023-08-11T15:03:03.962Z,26.80
2023-08-11T15:05:32.162Z,26.80
2023-08-11T15:08:00.277Z,26.90
2023-08-11T15:10:28.366Z,26.90
2023-08-11T15:12:56.413Z,26.80
2023-08-11T15:15:26.166Z,26.80
2023-08-11T15:17:54.330Z,26.80
2023-08-11T15:20:22.815Z,26.60
2023-08-11T15:22:51.822Z,26.50
2023-08-11T15:25:20.150Z,26.50
2023-08-11T15:27:48.369Z,26.30
2023-08-11T15:30:16.772Z,26.30
2023-08-11T15:32:46.612Z,26.30
2023-08-11T15:35:16.783Z,26.30
2023-08-11T15:37:44.886Z,26.30
2023-08-11T15:40:13.610Z,26.30
2023-08-11T15:42:43.258Z,26.20
2023-08-11T15:45:12.573Z,26.10
2023-08-11T15:47:40.833Z,26.10
2023-08-11T15:50:11.006Z,26.00
2023-08-11T15:52:39.353Z,25.90
2023-08-11T15:55:07.987Z,25.90
2023-08-11T15:57:36.082Z,26.00
2023-08-11T16:00:05.991Z,26.00
2023-08-11T16:02:34.249Z,26.10
2023-08-11T16:05:02.397Z,26.00
2023-08-11T16:07:31.893Z,26.10
2023-08-11T16:10:00.157Z,26.00
2023-08-11T16:12:28.272Z,26.00
2023-08-11T16:14:57.629Z,25.90
2023-08-11T16:17:25.777Z,25.90
2023-08-11T16:19:54.493Z,25.80
2023-08-11T16:22:22.580Z,25.60
2023-08-11T16:24:51.991Z,25.60
2023-08-11T16:27:20.259Z,25.60
2023-08-11T16:29:48.302Z,25.50
2023-08-11T16:32:16.458Z,25.50
2023-08-11T16:34:44.504Z,25.50
2023-08-11T16:37:12.564Z,25.50
2023-08-11T16:39:40.602Z,25.60
2023-08-11T16:42:10.390Z,25.50
2023-08-11T16:44:38.668Z,25.50
2023-08-11T16:47:07.201Z,25.50
2023-08-11T16:49:35.265Z,25.50
2023-08-11T16:52:03.504Z,25.40
2023-08-11T16:54:32.147Z,25.40
2023-08-11T16:57:00.231Z,25.40
2023-08-11T16:59:29.698Z,25.30
2023-08-11T17:01:57.888Z,25.20
2023-08-11T17:04:26.073Z,25.10
2023-08-11T17:06:55.585Z,25.00
2023-08-11T17:09:23.725Z,24.90
2023-08-11T17:11:52.150Z,24.80
2023-08-11T17:14:20.164Z,24.60
2023-08-11T17:16:49.678Z,24.50
2023-08-11T17:19:17.861Z,24.40
2023-08-11T17:21:45.961Z,24.30
2023-08-11T17:24:13.945Z,24.20
2023-08-11T17:26:44.119Z,24.10
2023-08-11T17:29:12.157Z,24.00
2023-08-11T17:31:40.301Z,24.00
2023-08-11T17:34:09.813Z,23.90
2023-08-11T17:36:37.814Z,23.80
2023-08-11T17:39:07.460Z,23.70
2023-08-11T17:41:35.528Z,23.60
2023-08-11T17:44:03.605Z,23.60
2023-08-11T17:46:33.786Z,23.50
2023-08-11T17:49:01.866Z,23.40
2023-08-11T17:51:31.777Z,23.30
2023-08-11T17:54:09.710Z,23.30
2023-08-11T17:56:38.624Z,23.20
2023-08-11T17:59:07.224Z,23.10
2023-08-11T18:01:35.352Z,23.00
2023-08-11T18:04:07.469Z,22.90
2023-08-11T18:06:37.982Z,22.90
2023-08-11T18:09:07.225Z,22.80
2023-08-11T18:11:36.424Z,22.80
2023-08-11T18:14:04.734Z,22.70
2023-08-11T18:16:33.196Z,22.60
2023-08-11T18:19:01.328Z,22.50
2023-08-11T18:21:29.365Z,22.40
2023-08-11T18:23:58.759Z,22.30
2023-08-11T18:26:30.072Z,22.30
2023-08-11T18:28:58.359Z,22.20
2023-08-11T18:31:36.776Z,22.20
2023-08-11T18:34:05.069Z,22.10
2023-08-11T18:36:33.124Z,22.00
2023-08-11T18:39:02.961Z,21.90
2023-08-11T18:41:31.077Z,21.90
2023-08-11T18:43:59.819Z,21.90
2023-08-11T18:46:27.953Z,21.80
2023-08-11T18:48:56.176Z,21.80
2023-08-11T18:51:24.662Z,21.70
2023-08-11T18:53:53.001Z,21.60
2023-08-11T18:56:22.448Z,21.60
2023-08-11T18:58:50.789Z,21.50
2023-08-11T19:01:18.968Z,21.50
2023-08-11T19:03:47.291Z,21.50
2023-08-11T19:06:15.479Z,21.40
2023-08-11T19:08:44.284Z,21.40
2023-08-11T19:11:12.833Z,21.30
2023-08-11T19:13:43.781Z,21.20
2023-08-11T19:16:13.827Z,21.20
2023-08-11T19:18:42.744Z,21.10
2023-08-11T19:21:10.890Z,21.10
2023-08-11T19:23:38.988Z,21.10
2023-08-11T19:26:07.014Z,21.00
2023-08-11T19:28:35.138Z,21.00
2023-08-11T19:31:04.921Z,21.00
2023-08-11T19:33:33.089Z,20.90
2023-08-11T19:36:01.247Z,20.90
2023-08-11T19:38:29.353Z,20.80
2023-08-11T19:40:57.609Z,20.70
2023-08-11T19:43:28.478Z,20.70
2023-08-11T19:45:59.033Z,20.60
2023-08-11T19:48:28.740Z,20.60
2023-08-11T19:50:57.451Z,20.60
2023-08-11T19:53:25.614Z,20.50
2023-08-11T19:55:53.889Z,20.50
2023-08-11T19:58:22.030Z,20.50
2023-08-11T20:00:50.192Z,20.40
2023-08-11T20:03:18.377Z,20.40
2023-08-11T20:05:48.546Z,20.40
2023-08-11T20:08:16.918Z,20.30
2023-08-11T20:10:46.007Z,20.20
2023-08-11T20:13:14.593Z,20.20
2023-08-11T20:15:43.034Z,20.10
2023-08-11T20:18:11.575Z,20.10
2023-08-11T20:20:39.767Z,20.10
2023-08-11T20:23:11.693Z,20.10
2023-08-11T20:25:39.987Z,20.10
2023-08-11T20:28:08.174Z,20.10
2023-08-11T20:30:40.010Z,20.00
2023-08-11T20:33:08.130Z,20.00
2023-08-11T20:35:36.548Z,20.00
2023-08-11T20:38:05.301Z,19.90
2023-08-11T20:40:34.969Z,19.90
2023-08-11T20:43:05.123Z,19.80
2023-08-11T20:45:33.309Z,19.80
2023-08-11T20:48:02.119Z,19.70
2023-08-11T20:50:30.576Z,19.70
2023-08-11T20:53:08.289Z,19.70
2023-08-11T20:55:47.226Z,19.70
2023-08-11T20:58:15.301Z,19.60
2023-08-11T21:00:43.574Z,19.60
2023-08-11T21:03:11.717Z,19.60
2023-08-11T21:05:42.353Z,19.60
2023-08-11T21:08:17.571Z,19.60
2023-08-11T21:10:48.740Z,19.60
2023-08-11T21:13:17.109Z,19.50
2023-08-11T21:15:45.748Z,19.50
2023-08-11T21:18:13.888Z,19.50
2023-08-11T21:20:42.024Z,19.40
2023-08-11T21:23:10.362Z,19.40
2023-08-11T21:25:38.471Z,19.40
2023-08-11T21:28:08.163Z,19.30
2023-08-11T21:30:37.279Z,19.30
2023-08-11T21:33:06.184Z,19.30
2023-08-11T21:35:34.372Z,19.30
2023-08-11T21:38:02.534Z,19.30
2023-08-11T21:40:31.083Z,19.20
2023-08-11T21:42:59.417Z,19.20
2023-08-11T21:45:29.264Z,19.20
2023-08-11T21:47:58.685Z,19.30
2023-08-11T21:50:27.369Z,19.20
2023-08-11T21:52:58.245Z,19.20
2023-08-11T21:55:26.667Z,19.10
2023-08-11T21:57:54.770Z,19.10
2023-08-11T22:00:22.998Z,19.10
2023-08-11T22:02:52.849Z,19.00
2023-08-11T22:05:30.198Z,19.00
2023-08-11T22:07:59.390Z,19.00
2023-08-11T22:10:28.055Z,19.00
2023-08-11T22:12:56.395Z,19.00
2023-08-11T22:15:24.685Z,18.90
2023-08-11T22:17:55.044Z,18.90
2023-08-11T22:20:23.343Z,18.90
2023-08-11T22:23:08.921Z,18.90
2023-08-11T22:25:37.512Z,18.80
2023-08-11T22:28:06.843Z,18.80
2023-08-11T22:30:36.036Z,18.80
2023-08-11T22:33:06.441Z,18.80
2023-08-11T22:35:34.522Z,18.70
2023-08-11T22:38:02.650Z,18.80
2023-08-11T22:40:30.742Z,18.80
2023-08-11T22:43:01.916Z,18.70
2023-08-11T22:45:33.273Z,18.70
2023-08-11T22:48:01.391Z,18.70
2023-08-11T22:50:31.480Z,18.70
2023-08-11T22:52:59.539Z,18.70
2023-08-11T22:55:27.638Z,18.60
2023-08-11T22:57:57.245Z,18.70
2023-08-11T23:00:28.025Z,18.60
2023-08-11T23:02:56.719Z,18.60
2023-08-11T23:05:24.907Z,18.50
2023-08-11T23:07:56.840Z,18.50
2023-08-11T23:10:25.052Z,18.60
2023-08-11T23:12:53.351Z,18.50
2023-08-11T23:15:21.772Z,18.50
2023-08-11T23:17:49.912Z,18.50
2023-08-11T23:20:19.023Z,18.50
2023-08-11T23:22:47.283Z,18.40
2023-08-11T23:25:17.869Z,18.40
2023-08-11T23:27:46.259Z,18.40
2023-08-11T23:30:15.468Z,18.40
2023-08-11T23:32:44.083Z,18.40
2023-08-11T23:35:12.250Z,18.40
2023-08-11T23:37:40.514Z,18.30
2023-08-11T23:40:10.832Z,18.30
2023-08-11T23:42:40.598Z,18.40
2023-08-11T23:45:10.924Z,18.40
2023-08-11T23:47:39.294Z,18.40
2023-08-11T23:50:09.323Z,18.30
2023-08-11T23:52:37.450Z,18.30
2023-08-11T23:55:07.104Z,18.30
2023-08-11T23:57:37.069Z,18.20
